Time;durP1;ratioP1;P1;durP2;ratioP2;P2;SDS_P1;SDS_P2;PMS_P1;PMS_P2;Temp;Humidity;BMP_temperature;BMP_pressure;BME280_temperature;BME280_humidity;BME280_pressure;Samples;Min_cycle;Max_cycle;Signal;HPM_P1;HPM_P2
2022/06/17 00:01:46;;;;;;;3.80;1.80;;;;;;;17.98;51.30;100809.59;5040286;28;21068;-67
2022/06/17 00:04:12;;;;;;;7.27;2.20;;;;;;;17.92;51.42;100797.84;5047800;28;20181;-67
2022/06/17 00:06:46;;;;;;;6.07;2.27;;;;;;;17.69;53.12;100800.38;5051172;28;20246;-67
2022/06/17 00:09:15;;;;;;;2.07;1.83;;;;;;;17.65;53.09;100801.56;5050997;28;20192;-66
2022/06/17 00:11:40;;;;;;;2.47;1.80;;;;;;;17.57;53.64;100804.69;5029739;28;20221;-67
2022/06/17 00:14:13;;;;;;;2.40;2.10;;;;;;;17.34;55.31;100806.38;5050671;28;20723;-68
2022/06/17 00:16:38;;;;;;;2.07;1.83;;;;;;;17.29;56.24;100805.88;5049220;28;20177;-67
2022/06/17 00:19:03;;;;;;;4.70;1.83;;;;;;;17.17;56.70;100794.56;5051095;28;20282;-67
2022/06/17 00:21:32;;;;;;;3.20;2.23;;;;;;;17.11;57.09;100797.63;5040238;28;20359;-66
2022/06/17 00:23:59;;;;;;;3.37;1.83;;;;;;;17.04;57.53;100784.25;5051263;28;20204;-66
2022/06/17 00:26:25;;;;;;;3.73;2.00;;;;;;;16.75;59.68;100781.06;5049657;28;20182;-66
2022/06/17 00:28:51;;;;;;;2.90;2.20;;;;;;;16.67;59.98;100770.34;5051275;28;20205;-66
2022/06/17 00:31:16;;;;;;;2.80;2.00;;;;;;;16.66;60.02;100772.13;5040524;28;20237;-67
2022/06/17 00:33:42;;;;;;;3.07;2.17;;;;;;;16.70;59.90;100775.34;5050468;28;20197;-67
2022/06/17 00:36:17;;;;;;;4.43;2.10;;;;;;;16.56;60.97;100771.94;5050649;28;20177;-67
2022/06/17 00:38:44;;;;;;;2.73;2.10;;;;;;;16.53;62.11;100773.91;5051359;28;20519;-67
2022/06/17 00:41:29;;;;;;;5.17;1.90;;;;;;;16.41;62.19;100763.44;5033614;28;20231;-68
2022/06/17 00:43:54;;;;;;;2.97;2.00;;;;;;;16.38;62.23;100768.84;5045307;28;20177;-66
2022/06/17 00:46:38;;;;;;;2.53;1.97;;;;;;;16.23;62.82;100756.91;5050358;28;20199;-66
2022/06/17 00:49:12;;;;;;;4.03;1.90;;;;;;;16.14;63.77;100760.97;5051107;28;20624;-66
2022/06/17 00:52:14;;;;;;;4.33;2.03;;;;;;;16.01;64.77;100773.91;5039666;28;20287;-66
2022/06/17 00:54:45;;;;;;;3.00;2.13;;;;;;;16.06;63.74;100779.66;5056255;28;20201;-66
2022/06/17 00:57:35;;;;;;;4.67;1.97;;;;;;;15.90;64.13;100781.59;5045102;28;20303;-66
2022/06/17 01:00:01;;;;;;;3.30;1.73;;;;;;;15.90;64.81;100781.59;5037467;28;20170;-66
2022/06/17 01:02:32;;;;;;;2.13;1.93;;;;;;;15.84;64.74;100784.56;5039843;28;20248;-66
2022/06/17 01:04:57;;;;;;;3.03;2.13;;;;;;;15.80;64.59;100791.69;5051043;28;20230;-66
2022/06/17 01:07:27;;;;;;;1.93;1.73;;;;;;;15.72;65.73;100786.19;5050397;28;20288;-66
2022/06/17 01:10:01;;;;;;;3.07;1.93;;;;;;;15.70;65.75;100801.84;5050877;28;20177;-66
2022/06/17 01:12:36;;;;;;;5.50;2.10;;;;;;;15.61;66.12;100797.25;5039218;28;20240;-66
2022/06/17 01:15:04;;;;;;;3.17;2.00;;;;;;;15.55;66.91;100797.66;5047020;28;20566;-66
2022/06/17 01:17:29;;;;;;;3.33;1.87;;;;;;;15.50;66.92;100800.53;5048848;28;20184;-66
2022/06/17 01:20:00;;;;;;;1.83;1.70;;;;;;;15.41;66.51;100796.78;5051017;28;20217;-66
2022/06/17 01:22:26;;;;;;;2.50;1.60;;;;;;;15.39;66.95;100792.63;5022849;28;20229;-66
2022/06/17 01:24:56;;;;;;;3.53;2.10;;;;;;;15.33;67.23;100796.41;5050762;28;20177;-66
2022/06/17 01:27:25;;;;;;;2.67;1.63;;;;;;;15.30;67.39;100800.03;5049970;28;20203;-67
2022/06/17 01:29:51;;;;;;;3.90;1.80;;;;;;;15.26;67.77;100803.78;5050734;28;20216;-67
2022/06/17 01:32:19;;;;;;;3.07;1.80;;;;;;;15.19;68.21;100801.66;5042650;28;20229;-67
2022/06/17 01:34:45;;;;;;;2.40;2.03;;;;;;;15.15;68.92;100799.25;5054296;28;20199;-66
2022/06/17 01:37:11;;;;;;;3.37;2.03;;;;;;;15.14;68.87;100802.78;5053676;28;20181;-67
2022/06/17 01:39:37;;;;;;;5.07;2.40;;;;;;;15.18;68.64;100803.41;5054288;28;20389;-66
2022/06/17 01:42:04;;;;;;;2.83;1.90;;;;;;;15.19;68.39;100799.06;5043002;28;20216;-66
2022/06/17 01:44:36;;;;;;;4.37;2.70;;;;;;;15.31;67.45;100795.72;5053992;28;20271;-67
2022/06/17 01:47:05;;;;;;;5.20;1.90;;;;;;;15.23;67.47;100793.59;5053588;28;20191;-67
2022/06/17 01:49:35;;;;;;;2.13;1.83;;;;;;;15.22;67.66;100789.34;5052465;28;20209;-67
2022/06/17 01:52:14;;;;;;;3.00;1.93;;;;;;;15.16;68.50;100790.56;5042381;28;20602;-67
2022/06/17 01:54:52;;;;;;;3.40;2.50;;;;;;;15.12;69.02;100790.84;5052113;28;20211;-65
2022/06/17 01:57:25;;;;;;;3.63;2.17;;;;;;;15.10;69.68;100796.13;5053305;28;20185;-65
2022/06/17 01:59:57;;;;;;;1.77;1.60;;;;;;;15.03;70.04;100801.78;5054012;28;20189;-66
2022/06/17 02:02:24;;;;;;;3.63;1.90;;;;;;;15.17;70.10;100801.78;5042503;28;20354;-65
2022/06/17 02:04:57;;;;;;;4.87;2.07;;;;;;;15.11;70.39;100794.38;5053978;28;20193;-66
2022/06/17 02:07:31;;;;;;;2.17;1.97;;;;;;;15.04;70.35;100793.91;5053198;28;20601;-65
2022/06/17 02:09:57;;;;;;;2.30;2.10;;;;;;;15.04;70.95;100798.28;5053281;28;20180;-66
2022/06/17 02:12:24;;;;;;;7.53;2.30;;;;;;;15.13;70.73;100808.06;5058971;28;20225;-65
2022/06/17 02:14:50;;;;;;;4.07;1.93;;;;;;;15.05;70.55;100802.53;5049633;28;20201;-65
2022/06/17 02:17:15;;;;;;;3.70;1.97;;;;;;;15.01;71.43;100809.66;5053394;28;20291;-66
2022/06/17 02:19:43;;;;;;;3.00;2.00;;;;;;;14.96;72.20;100819.47;5053073;28;20215;-66
2022/06/17 02:22:25;;;;;;;3.50;2.17;;;;;;;14.81;72.92;100823.81;5042087;28;20312;-66
2022/06/17 02:24:53;;;;;;;6.47;2.07;;;;;;;14.87;72.93;100820.03;5053565;28;20192;-66
2022/06/17 02:27:20;;;;;;;5.40;2.03;;;;;;;14.85;72.94;100815.78;5053041;28;20211;-66
2022/06/17 02:29:48;;;;;;;5.00;2.50;;;;;;;14.74;73.99;100815.59;5052998;28;20201;-66
2022/06/17 02:32:13;;;;;;;4.40;2.07;;;;;;;14.70;74.16;100824.47;5041876;28;20213;-66
2022/06/17 02:34:49;;;;;;;3.07;2.63;;;;;;;14.63;74.30;100823.16;5053059;28;20201;-65
2022/06/17 02:37:16;;;;;;;1.97;1.77;;;;;;;14.59;74.70;100819.91;5053003;28;20192;-66
2022/06/17 02:39:45;;;;;;;2.63;1.80;;;;;;;14.48;75.66;100820.53;5053049;28;20185;-66
2022/06/17 02:42:27;;;;;;;4.03;2.53;;;;;;;14.36;75.62;100803.16;5041132;28;20255;-67
2022/06/17 02:45:04;;;;;;;4.17;2.07;;;;;;;14.47;74.80;100803.34;5052947;28;20196;-66
2022/06/17 02:47:31;;;;;;;2.53;2.03;;;;;;;14.45;75.28;100805.22;5052108;28;20243;-66
2022/06/17 02:49:57;;;;;;;4.67;2.67;;;;;;;14.49;75.43;100806.69;5052729;28;20537;-66
2022/06/17 02:52:38;;;;;;;3.13;2.00;;;;;;;14.41;75.24;100813.25;5038254;28;20681;-66
2022/06/17 02:55:10;;;;;;;2.10;1.73;;;;;;;14.42;75.70;100812.31;5044367;28;20224;-66
2022/06/17 02:57:35;;;;;;;4.90;2.10;;;;;;;14.40;76.13;100815.00;5050735;28;20641;-66
2022/06/17 03:00:09;;;;;;;2.07;1.97;;;;;;;14.24;77.21;100809.91;5052606;28;20226;-66
2022/06/17 03:02:46;;;;;;;4.53;2.37;;;;;;;14.28;77.74;100818.31;5027390;28;20221;-67
2022/06/17 03:05:30;;;;;;;3.53;2.33;;;;;;;14.25;77.60;100818.50;5052492;28;20188;-67
2022/06/17 03:07:56;;;;;;;8.33;2.90;;;;;;;14.17;78.10;100812.00;5049865;28;20238;-66
2022/06/17 03:10:30;;;;;;;4.87;2.40;;;;;;;14.11;77.94;100808.94;5042013;28;20230;-66
2022/06/17 03:13:05;;;;;;;7.80;2.40;;;;;;;14.14;78.20;100808.75;5051271;28;20582;-66
2022/06/17 03:15:31;;;;;;;3.87;2.47;;;;;;;14.14;78.83;100807.03;5045424;28;20658;-67
2022/06/17 03:17:57;;;;;;;4.90;2.37;;;;;;;14.11;79.45;100803.78;5059272;28;20261;-66
2022/06/17 03:20:34;;;;;;;3.63;2.10;;;;;;;14.03;79.10;100799.88;5041787;28;20236;-67
2022/06/17 03:23:06;;;;;;;3.00;2.00;;;;;;;14.05;80.11;100804.94;5051388;28;21384;-66
2022/06/17 03:25:42;;;;;;;6.67;2.30;;;;;;;14.05;79.53;100804.94;5052230;28;20187;-67
2022/06/17 03:28:11;;;;;;;4.40;2.00;;;;;;;14.11;79.59;100806.38;5051443;28;20704;-66
2022/06/17 03:30:45;;;;;;;2.93;2.47;;;;;;;14.08;78.84;100804.78;5021170;28;20229;-66
2022/06/17 03:33:21;;;;;;;4.17;2.40;;;;;;;14.07;79.19;100810.06;5050755;28;20235;-66
2022/06/17 03:35:52;;;;;;;6.50;2.67;;;;;;;14.21;78.82;100812.66;5052153;28;20525;-67
2022/06/17 03:38:35;;;;;;;12.27;2.53;;;;;;;14.20;79.45;100822.19;5051487;28;20185;-66
2022/06/17 03:41:09;;;;;;;3.30;2.50;;;;;;;14.27;79.52;100819.25;5041128;28;20680;-66
2022/06/17 03:43:42;;;;;;;5.57;2.53;;;;;;;14.30;78.81;100819.91;5050875;28;20191;-67
2022/06/17 03:46:09;;;;;;;4.30;2.63;;;;;;;14.43;77.78;100822.59;5050038;28;20225;-66
2022/06/17 03:48:47;;;;;;;4.70;2.50;;;;;;;14.49;77.53;100835.16;5050511;28;20174;-67
2022/06/17 03:51:21;;;;;;;3.97;2.30;;;;;;;14.61;77.67;100840.53;5041153;28;20336;-67
2022/06/17 03:53:47;;;;;;;2.43;2.23;;;;;;;14.71;77.52;100841.69;5045942;28;20702;-68
2022/06/17 03:56:28;;;;;;;4.90;2.70;;;;;;;14.71;77.24;100851.19;5051017;28;20187;-67
2022/06/17 03:58:57;;;;;;;8.50;2.70;;;;;;;14.76;77.15;100851.75;5051574;28;20603;-67
2022/06/17 04:02:02;;;;;;;3.07;2.40;;;;;;;14.70;76.99;100860.75;5040835;28;20221;-67
2022/06/17 04:04:31;;;;;;;3.00;2.60;;;;;;;14.79;76.64;100857.59;5052470;28;20188;-67
2022/06/17 04:06:58;;;;;;;4.03;2.07;;;;;;;14.77;77.05;100868.97;5049682;28;20666;-67
2022/06/17 04:09:26;;;;;;;2.87;2.30;;;;;;;14.85;77.12;100864.16;5051557;28;20179;-67
2022/06/17 04:11:57;;;;;;;4.80;2.70;;;;;;;14.95;76.13;100862.66;5040372;28;20320;-66
2022/06/17 04:14:57;;;;;;;7.53;2.20;;;;;;;14.88;77.54;100865.72;5051166;28;20205;-59
2022/06/17 04:17:41;;;;;;;3.67;2.27;;;;;;;14.99;77.07;100860.72;5049937;28;20235;-61
2022/06/17 04:20:34;;;;;;;2.53;2.33;;;;;;;15.05;75.19;100868.13;5054725;28;20241;-62
2022/06/17 04:23:06;;;;;;;3.60;2.77;;;;;;;15.16;76.58;100880.44;5050263;28;20183;-61
2022/06/17 04:26:18;;;;;;;2.77;2.43;;;;;;;15.11;75.28;100882.47;5050565;28;20186;-61
2022/06/17 04:28:50;;;;;;;5.80;2.20;;;;;;;15.25;76.58;100892.81;4985534;28;20673;-61
2022/06/17 04:31:20;;;;;;;2.97;2.37;;;;;;;15.37;75.66;100885.19;4972806;28;20214;-62
2022/06/17 04:33:49;;;;;;;2.93;2.73;;;;;;;15.38;75.23;100889.47;4989845;28;20593;-60
2022/06/17 04:36:20;;;;;;;3.57;2.70;;;;;;;15.37;74.69;100887.78;4987496;28;20211;-60
2022/06/17 04:38:55;;;;;;;3.33;2.60;;;;;;;15.38;74.07;100889.47;4987171;28;20207;-61
2022/06/17 04:41:25;;;;;;;4.17;2.30;;;;;;;15.41;74.35;100891.88;4998324;28;20226;-61
2022/06/17 04:43:54;;;;;;;3.60;2.27;;;;;;;15.54;73.94;100892.78;5004286;28;20202;-61
2022/06/17 04:46:30;;;;;;;4.17;2.20;;;;;;;15.77;72.75;100893.06;4986089;28;20537;-62
2022/06/17 04:48:57;;;;;;;2.57;2.17;;;;;;;15.78;72.76;100886.97;4987545;28;20182;-62
2022/06/17 04:51:25;;;;;;;4.37;2.53;;;;;;;15.97;71.53;100891.81;4980335;28;20222;-60
2022/06/17 04:53:52;;;;;;;6.13;2.23;;;;;;;16.48;71.19;100885.06;5008556;28;20661;-61
2022/06/17 04:56:32;;;;;;;3.37;2.30;;;;;;;16.67;69.11;100882.03;4992124;28;20770;-61
2022/06/17 04:58:57;;;;;;;3.57;2.13;;;;;;;16.75;68.30;100887.56;5008892;28;20199;-61
2022/06/17 05:01:24;;;;;;;2.90;2.50;;;;;;;16.64;67.38;100885.69;4999075;28;20221;-61
2022/06/17 05:03:53;;;;;;;3.77;2.00;;;;;;;16.90;66.83;100886.50;5008042;28;20261;-62
2022/06/17 05:06:18;;;;;;;4.83;2.23;;;;;;;17.16;65.92;100880.47;5052213;28;20314;-61
2022/06/17 05:08:51;;;;;;;5.20;2.07;;;;;;;17.38;65.07;100882.41;5054432;28;20181;-61
2022/06/17 05:11:35;;;;;;;3.50;2.40;;;;;;;17.52;65.50;100895.25;5053889;28;20216;-62
2022/06/17 05:14:17;;;;;;;4.40;2.13;;;;;;;17.55;66.68;100892.44;5055562;28;20217;-62
2022/06/17 05:16:43;;;;;;;5.83;2.03;;;;;;;17.56;63.94;100885.44;5040626;28;20199;-61
2022/06/17 05:19:08;;;;;;;3.07;2.13;;;;;;;17.43;63.36;100883.72;5054740;28;20312;-62
2022/06/17 05:21:33;;;;;;;2.90;1.90;;;;;;;17.45;63.02;100882.78;5043075;28;20214;-62
2022/06/17 05:23:59;;;;;;;2.40;2.07;;;;;;;17.75;61.86;100883.19;5054400;28;20680;-61
2022/06/17 05:26:25;;;;;;;2.67;2.00;;;;;;;18.06;60.30;100883.59;5054035;28;20726;-62
2022/06/17 05:28:51;;;;;;;2.33;2.10;;;;;;;18.35;58.96;100879.75;5053102;28;20197;-62
2022/06/17 05:31:20;;;;;;;1.67;1.47;;;;;;;18.65;57.04;100889.63;5043452;28;20578;-62
2022/06/17 05:33:49;;;;;;;2.67;1.67;;;;;;;18.77;54.64;100893.06;5046677;28;21086;-62
2022/06/17 05:36:15;;;;;;;3.87;1.87;;;;;;;18.79;55.72;100895.56;5053633;28;20185;-63
2022/06/17 05:38:41;;;;;;;2.47;1.97;;;;;;;18.92;55.00;100898.09;5053146;28;20600;-62
2022/06/17 05:41:13;;;;;;;3.23;1.97;;;;;;;19.10;54.25;100888.84;5036869;28;20232;-63
2022/06/17 05:43:39;;;;;;;4.20;1.60;;;;;;;19.37;53.93;100892.81;5053490;28;20181;-61
2022/06/17 05:46:04;;;;;;;3.53;2.00;;;;;;;19.30;52.25;100894.25;5053683;28;20567;-63
2022/06/17 05:48:29;;;;;;;3.17;2.07;;;;;;;19.32;53.14;100900.19;5054090;28;20189;-64
2022/06/17 05:50:55;;;;;;;3.57;2.03;;;;;;;19.72;52.35;100894.41;5037964;28;20334;-62
2022/06/17 05:53:20;;;;;;;2.37;1.83;;;;;;;19.71;52.46;100897.13;5051425;28;20211;-62
2022/06/17 05:55:45;;;;;;;2.27;2.03;;;;;;;20.03;52.48;100897.13;5063933;28;20529;-62
2022/06/17 05:58:11;;;;;;;5.03;2.27;;;;;;;20.20;51.83;100897.56;5052710;28;21598;-61
2022/06/17 06:00:36;;;;;;;10.20;2.60;;;;;;;20.83;49.87;100912.38;5037604;28;20282;-63
2022/06/17 06:03:04;;;;;;;3.67;2.00;;;;;;;21.42;47.10;100913.38;5039253;28;20208;-62
2022/06/17 06:05:32;;;;;;;2.43;2.00;;;;;;;22.17;45.46;100918.97;5051438;28;20709;-62
2022/06/17 06:07:58;;;;;;;4.37;1.97;;;;;;;22.60;43.32;100919.47;5050944;28;20193;-62
2022/06/17 06:10:24;;;;;;;2.03;1.73;;;;;;;23.21;41.89;100931.25;5041431;28;22527;-61
2022/06/17 06:13:03;;;;;;;2.60;1.80;;;;;;;23.86;39.88;100929.44;5029692;28;20181;-63
2022/06/17 06:15:41;;;;;;;5.17;1.73;;;;;;;24.60;38.21;100924.78;5068596;28;20169;-62
2022/06/17 06:18:11;;;;;;;2.17;1.63;;;;;;;26.14;36.25;100922.13;5052565;28;20174;-62
2022/06/17 06:20:36;;;;;;;4.22;1.83;;;;;;;24.71;38.28;100923.72;5047928;28;20319;-62
2022/06/17 06:23:02;;;;;;;3.03;2.10;;;;;;;24.92;36.32;100927.75;5057015;28;20245;-62
2022/06/17 06:25:27;;;;;;;3.53;1.90;;;;;;;25.72;34.44;100929.16;5052594;28;20181;-62
2022/06/17 06:27:53;;;;;;;5.35;1.90;;;;;;;25.82;34.46;100929.81;5052262;28;20274;-62
2022/06/17 06:30:25;;;;;;;6.68;2.35;;;;;;;26.46;33.35;100926.50;5040796;28;20209;-62
2022/06/17 06:32:59;;;;;;;4.72;2.03;;;;;;;26.24;33.62;100922.75;5047834;28;20276;-63
2022/06/17 06:35:28;;;;;;;3.20;2.08;;;;;;;25.13;34.83;100932.59;5049787;28;20696;-62
2022/06/17 06:37:54;;;;;;;4.00;2.15;;;;;;;26.74;33.00;100924.31;5050543;28;20549;-62
2022/06/17 06:40:20;;;;;;;6.05;1.70;;;;;;;25.17;33.69;100923.41;5042159;28;20261;-63
2022/06/17 06:42:50;;;;;;;4.75;1.52;;;;;;;26.13;32.74;100923.09;5024329;28;20196;-63
2022/06/17 06:45:22;;;;;;;2.65;1.58;;;;;;;26.63;31.41;100929.09;5047579;28;20197;-62
2022/06/17 06:47:48;;;;;;;4.15;1.73;;;;;;;26.98;30.64;100927.03;5047210;28;20307;-71
2022/06/17 06:50:18;;;;;;;6.78;1.90;;;;;;;26.99;30.73;100924.22;5045391;28;20173;-71
2022/06/17 06:52:44;;;;;;;5.75;1.75;;;;;;;26.01;32.01;100930.47;5037939;28;20178;-73
2022/06/17 06:55:10;;;;;;;9.13;2.28;;;;;;;26.98;31.32;100922.59;5054783;28;20255;-74
2022/06/17 06:57:42;;;;;;;6.82;2.60;;;;;;;27.90;29.86;100928.13;5054250;28;20193;-74
2022/06/17 07:00:08;;;;;;;6.38;1.75;;;;;;;27.59;30.35;100929.06;5030056;28;20317;-74
2022/06/17 07:02:33;;;;;;;5.95;2.15;;;;;;;28.02;29.89;100930.19;5053134;28;20181;-72
2022/06/17 07:04:58;;;;;;;3.75;1.90;;;;;;;27.28;30.57;100927.22;5055645;28;20610;-74
2022/06/17 07:07:24;;;;;;;7.13;1.90;;;;;;;26.22;32.39;100922.94;5052352;28;20235;-72
2022/06/17 07:09:50;;;;;;;8.32;2.00;;;;;;;27.04;32.02;100923.69;5053803;28;20185;-73
2022/06/17 07:12:16;;;;;;;4.75;2.08;;;;;;;26.45;32.70;100918.78;5038348;28;20320;-74
2022/06/17 07:14:41;;;;;;;6.57;2.05;;;;;;;26.82;32.48;100920.81;5048177;28;20251;-70
2022/06/17 07:17:08;;;;;;;4.53;1.90;;;;;;;27.80;30.37;100925.75;5017686;28;20233;-73
2022/06/17 07:19:33;;;;;;;7.65;1.65;;;;;;;28.34;29.50;100924.78;5049898;28;20686;-73
2022/06/17 07:21:58;;;;;;;5.38;1.90;;;;;;;28.72;28.63;100927.38;5018563;28;20246;-74
2022/06/17 07:24:23;;;;;;;5.63;1.70;;;;;;;28.90;28.39;100937.59;5038826;28;20200;-73
2022/06/17 07:26:49;;;;;;;8.35;2.53;;;;;;;29.03;28.21;100942.25;5054288;28;20199;-70
2022/06/17 07:29:14;;;;;;;3.03;1.70;;;;;;;29.74;26.69;100944.22;5053167;28;20280;-72
2022/06/17 07:31:40;;;;;;;4.00;1.50;;;;;;;29.35;27.08;100936.69;5014691;28;20288;-72
2022/06/17 07:34:06;;;;;;;3.55;1.95;;;;;;;27.99;29.02;100929.72;5051482;28;20197;-71
2022/06/17 07:42:01;;;;;;;5.15;1.90;;;;;;;27.57;29.59;100926.56;5022751;28;20228;-71
2022/06/17 07:44:26;;;;;;;6.38;2.00;;;;;;;27.19;29.77;100921.97;5058598;28;20189;-72
2022/06/17 07:46:52;;;;;;;7.15;1.83;;;;;;;28.62;28.20;100925.00;5052699;28;20177;-72
2022/06/17 07:49:18;;;;;;;3.58;1.67;;;;;;;29.79;25.99;100919.81;5053774;28;20647;-72
2022/06/17 07:51:44;;;;;;;5.53;1.50;;;;;;;30.42;25.66;100924.38;5055921;28;20225;-75
2022/06/17 07:54:09;;;;;;;7.13;2.22;;;;;;;30.15;25.42;100915.41;5052937;28;20205;-72
2022/06/17 07:56:35;;;;;;;5.20;1.80;;;;;;;29.30;26.36;100908.16;5057680;28;20533;-72
2022/06/17 07:59:01;;;;;;;2.95;1.40;;;;;;;28.59;26.88;100906.84;5054076;28;20174;-71
2022/06/17 08:01:26;;;;;;;2.55;1.60;;;;;;;29.34;26.36;100913.88;5044439;28;20225;-73
2022/06/17 08:10:37;;;;;;;4.30;1.50;;;;;;;28.23;27.35;100909.38;5040098;28;20327;-72
2022/06/17 08:13:04;;;;;;;2.72;1.38;;;;;;;28.52;27.23;100913.88;5042519;28;20181;-72
2022/06/17 08:15:30;;;;;;;3.85;1.48;;;;;;;27.81;28.82;100917.63;5051330;28;20634;-70
2022/06/17 08:24:38;;;;;;;3.65;1.63;;;;;;;28.90;26.96;100912.94;5048460;28;20240;-71
2022/06/17 08:27:04;;;;;;;2.17;1.27;;;;;;;28.62;26.76;100897.72;5055765;28;20189;-72
2022/06/17 08:29:30;;;;;;;5.22;1.65;;;;;;;28.92;26.41;100908.28;5050398;28;20662;-71
2022/06/17 08:32:44;;;;;;;1.90;1.33;;;;;;;30.21;25.34;100898.72;5055779;28;20228;-71
2022/06/17 08:34:41;;;;;;;1.88;1.40;;;;;;;30.32;24.61;100898.19;5050275;28;20668;-71
2022/06/17 08:37:07;;;;;;;3.67;1.33;;;;;;;30.23;24.33;100894.84;5050530;28;20246;-72
2022/06/17 08:39:33;;;;;;;3.92;1.80;;;;;;;30.41;24.26;100901.50;5050503;28;20181;-71
2022/06/17 08:42:21;;;;;;;3.40;1.30;;;;;;;31.35;22.92;100902.69;5051842;28;20319;-70
2022/06/17 08:45:02;;;;;;;2.65;1.35;;;;;;;32.30;22.56;100903.53;5056399;28;20271;-70
2022/06/17 08:48:04;;;;;;;2.50;1.40;;;;;;;30.91;22.87;100907.47;5065422;28;20583;-72
2022/06/17 08:50:56;;;;;;;5.90;1.30;;;;;;;32.41;22.09;100910.06;5048002;28;20301;-71
2022/06/17 08:53:30;;;;;;;2.15;1.20;;;;;;;31.92;21.89;100912.19;5070449;28;20278;-71
2022/06/17 08:56:28;;;;;;;4.22;1.70;;;;;;;32.10;21.58;100911.53;5055497;28;20196;-74
2022/06/17 08:59:33;;;;;;;1.48;1.33;;;;;;;31.00;22.75;100899.34;5053832;28;20197;-73
2022/06/17 09:02:04;;;;;;;1.83;1.08;;;;;;;31.53;22.28;100893.31;5031914;28;20230;-75
2022/06/17 09:04:55;;;;;;;2.13;1.10;;;;;;;32.63;20.77;100887.44;5055667;28;20223;-73
2022/06/17 09:07:23;;;;;;;1.67;1.17;;;;;;;32.58;21.48;100895.25;5057041;28;20212;-73
2022/06/17 09:10:16;;;;;;;3.17;1.35;;;;;;;31.78;21.59;100885.59;5055473;28;20704;-70
2022/06/17 09:12:57;;;;;;;3.28;1.40;;;;;;;31.54;21.99;100887.81;5042254;28;20223;-73
2022/06/17 09:15:30;;;;;;;3.28;0.95;;;;;;;32.92;19.93;100892.47;5054066;28;20200;-72
2022/06/17 09:18:32;;;;;;;4.63;1.38;;;;;;;33.17;19.98;100907.72;5051819;28;20190;-69
2022/06/17 09:21:07;;;;;;;6.70;1.60;;;;;;;34.57;18.97;100911.06;5040698;28;20375;-68
2022/06/17 09:23:36;;;;;;;1.35;0.90;;;;;;;33.87;18.91;100918.31;5035491;28;20185;-71
2022/06/17 09:26:07;;;;;;;4.07;1.42;;;;;;;34.49;19.17;100916.72;5056395;28;20193;-72
2022/06/17 09:28:40;;;;;;;3.38;1.30;;;;;;;34.97;18.03;100923.13;5056810;28;20569;-72
2022/06/17 09:31:16;;;;;;;2.47;1.38;;;;;;;35.50;17.33;100916.19;5035079;28;20316;-69
2022/06/17 09:33:50;;;;;;;2.85;1.30;;;;;;;35.47;17.69;100914.00;5058970;28;20193;-71
2022/06/17 09:36:22;;;;;;;2.40;1.05;;;;;;;37.22;15.79;100916.88;5056684;28;20193;-71
2022/06/17 09:39:19;;;;;;;3.25;1.17;;;;;;;37.45;16.41;100919.41;5044050;28;20198;-71
2022/06/17 09:41:51;;;;;;;1.20;1.05;;;;;;;38.28;14.97;100923.31;5059569;28;20216;-69
2022/06/17 09:44:22;;;;;;;2.63;1.27;;;;;;;37.66;15.19;100919.75;5058327;28;20204;-71
2022/06/17 09:46:54;;;;;;;2.83;1.20;;;;;;;37.35;15.61;100913.91;5048512;28;20275;-71
2022/06/17 09:49:35;;;;;;;2.80;1.35;;;;;;;35.65;16.93;100919.25;5054554;28;20218;-71
2022/06/17 09:52:10;;;;;;;2.95;1.48;;;;;;;34.32;19.35;100913.78;5055171;28;20731;-70
2022/06/17 09:54:40;;;;;;;2.70;1.50;;;;;;;35.64;18.20;100909.59;5051120;28;20307;-70
2022/06/17 09:57:12;;;;;;;4.45;1.13;;;;;;;37.07;16.16;100928.13;5053476;28;20625;-67
2022/06/17 09:59:45;;;;;;;2.88;1.20;;;;;;;34.93;18.06;100920.09;5053120;28;20648;-73
2022/06/17 10:02:29;;;;;;;1.48;1.17;;;;;;;34.41;17.97;100925.81;5016538;28;20699;-70
2022/06/17 10:04:55;;;;;;;2.22;1.17;;;;;;;35.24;17.52;100912.84;5036637;28;20259;-67
2022/06/17 10:07:30;;;;;;;2.35;1.23;;;;;;;36.70;16.97;100917.78;5050952;28;20196;-68
2022/06/17 10:10:15;;;;;;;4.75;1.75;;;;;;;38.59;16.04;100919.13;5052184;28;20234;-72
2022/06/17 10:13:06;;;;;;;3.53;1.20;;;;;;;39.15;14.66;100901.94;5049254;28;20522;-69
2022/06/17 10:19:03;;;;;;;1.10;1.00;;;;;;;36.92;15.50;100891.94;5042474;28;20319;-66
2022/06/17 10:22:01;;;;;;;1.95;1.30;;;;;;;34.26;18.55;100884.28;5028877;28;20283;-70
2022/06/17 10:24:46;;;;;;;2.78;1.13;;;;;;;33.49;19.82;100881.88;5041816;28;20232;-67
2022/06/17 10:27:29;;;;;;;3.55;1.60;;;;;;;32.83;19.80;100878.59;5052807;28;20276;-68
2022/06/17 10:30:01;;;;;;;2.78;1.25;;;;;;;33.01;19.40;100877.88;5051975;28;20188;-69
2022/06/17 10:32:27;;;;;;;2.47;1.20;;;;;;;33.66;19.08;100876.81;5027030;28;20319;-69
2022/06/17 10:34:58;;;;;;;2.72;1.10;;;;;;;35.23;18.23;100873.81;5051207;28;20209;-69
2022/06/17 10:37:26;;;;;;;1.83;1.13;;;;;;;36.96;16.23;100868.94;5052195;28;20224;-69
2022/06/17 10:39:52;;;;;;;2.67;1.23;;;;;;;34.44;18.07;100866.63;5052839;28;20264;-71
2022/06/17 10:42:21;;;;;;;2.85;1.92;;;;;;;34.30;19.57;100865.94;5055977;28;20219;-68
2022/06/17 10:44:50;;;;;;;1.02;0.90;;;;;;;33.06;19.54;100863.91;5050176;28;20173;-67
2022/06/17 10:47:56;;;;;;;2.70;1.20;;;;;;;31.15;21.59;100864.66;5050879;28;20272;-68
2022/06/17 10:50:23;;;;;;;2.38;1.10;;;;;;;29.38;23.50;100860.31;5046425;28;20239;-66
2022/06/17 10:52:57;;;;;;;1.85;1.60;;;;;;;29.34;24.90;100859.06;5058289;28;20188;-67
2022/06/17 10:55:33;;;;;;;3.38;1.10;;;;;;;29.41;24.37;100857.28;5053040;28;20260;-67
2022/06/17 10:58:18;;;;;;;4.63;1.20;;;;;;;28.70;23.80;100860.56;5052396;28;20382;-66
2022/06/17 11:00:51;;;;;;;4.47;1.30;;;;;;;28.23;24.70;100856.47;5031964;28;20243;-66
2022/06/17 11:03:22;;;;;;;1.58;1.20;;;;;;;28.78;24.91;100857.81;5051365;28;20234;-70
2022/06/17 11:06:13;;;;;;;1.73;1.00;;;;;;;29.25;24.98;100855.69;5052475;28;20674;-69
2022/06/17 11:09:01;;;;;;;2.08;1.20;;;;;;;28.68;26.03;100841.44;5050754;28;20197;-67
2022/06/17 11:14:43;;;;;;;1.98;1.05;;;;;;;28.53;26.73;100840.56;5053008;28;20211;-69
2022/06/17 11:17:36;;;;;;;1.30;0.90;;;;;;;28.47;26.30;100840.31;5040792;28;20225;-70
2022/06/17 11:20:24;;;;;;;1.95;1.00;;;;;;;28.12;25.09;100850.63;5036050;28;20182;-67
2022/06/17 11:22:59;;;;;;;6.10;1.23;;;;;;;27.43;25.31;100846.25;5036327;28;20189;-67
2022/06/17 11:25:38;;;;;;;2.08;1.30;;;;;;;27.01;25.49;100845.66;5050340;28;20236;-67
2022/06/17 11:28:33;;;;;;;2.33;0.88;;;;;;;27.16;25.44;100843.09;5051624;28;20209;-68
2022/06/17 11:31:06;;;;;;;3.40;1.52;;;;;;;27.17;26.10;100846.56;5014941;28;20704;-67
2022/06/17 11:33:53;;;;;;;1.80;1.00;;;;;;;27.61;25.67;100838.03;5041718;28;20648;-68
2022/06/17 11:36:20;;;;;;;2.10;1.08;;;;;;;27.78;25.05;100825.47;5049447;28;20208;-68
2022/06/17 11:38:46;;;;;;;1.98;0.93;;;;;;;27.88;24.91;100832.34;5051430;28;20213;-67
2022/06/17 11:41:29;;;;;;;1.52;1.15;;;;;;;28.14;25.50;100822.16;5050270;28;20738;-67
2022/06/17 11:44:05;;;;;;;3.42;1.10;;;;;;;27.68;25.88;100822.28;5056999;28;20188;-67
2022/06/17 11:46:34;;;;;;;6.38;0.90;;;;;;;27.92;25.08;100825.69;5043564;28;20193;-69
2022/06/17 11:49:08;;;;;;;3.45;0.82;;;;;;;28.26;26.41;100819.09;5062322;28;20177;-70
2022/06/17 11:51:50;;;;;;;1.73;0.82;;;;;;;28.28;23.95;100823.19;5035777;28;20230;-67
2022/06/17 11:54:25;;;;;;;5.22;1.00;;;;;;;28.56;24.86;100817.22;5053546;28;20292;-69
2022/06/17 12:03:33;;;;;;;1.10;0.90;;;;;;;28.14;25.01;100794.91;5043008;28;20593;-63
2022/06/17 12:06:05;;;;;;;2.78;1.00;;;;;;;28.05;24.11;100799.47;5043902;28;20272;-67
2022/06/17 12:08:45;;;;;;;2.33;1.05;;;;;;;27.79;24.31;100792.75;5050208;28;20268;-64
2022/06/17 12:11:16;;;;;;;3.90;1.33;;;;;;;27.56;24.06;100787.50;5034866;28;20224;-64
2022/06/17 12:13:48;;;;;;;7.55;1.15;;;;;;;27.72;25.00;100798.94;5047030;28;20201;-64
2022/06/17 12:16:23;;;;;;;4.60;1.33;;;;;;;28.01;25.98;100793.69;5040505;28;20243;-62
2022/06/17 12:18:53;;;;;;;5.82;1.30;;;;;;;28.20;25.47;100790.72;5049146;28;20185;-63
2022/06/17 12:21:52;;;;;;;3.47;1.00;;;;;;;28.05;23.94;100785.44;5039653;28;20314;-62